createdAt,value
2023-04-30T00:00:14.747Z,14.00
2023-04-30T00:05:16.573Z,19.30
2023-04-30T00:10:20.236Z,16.92
2023-04-30T00:15:21.822Z,16.42
2023-04-30T00:20:23.420Z,15.90
2023-04-30T00:25:25.062Z,14.93
2023-04-30T00:30:26.704Z,17.48
2023-04-30T00:35:28.365Z,15.80
2023-04-30T00:40:30.265Z,13.93
2023-04-30T00:45:31.988Z,18.48
2023-04-30T00:50:36.517Z,17.55
2023-04-30T00:55:40.614Z,17.52
2023-04-30T01:00:47.097Z,15.23
2023-04-30T01:05:51.428Z,15.85
2023-04-30T01:11:07.302Z,15.35
2023-04-30T01:16:21.989Z,18.73
2023-04-30T01:21:24.489Z,13.32
2023-04-30T01:27:15.693Z,18.10
2023-04-30T01:32:17.340Z,17.08
2023-04-30T01:37:46.248Z,16.83
2023-04-30T01:43:12.146Z,19.45
2023-04-30T01:48:44.828Z,15.23
2023-04-30T01:53:47.196Z,12.65
2023-04-30T01:58:53.675Z,16.55
2023-04-30T02:03:55.492Z,20.65
2023-04-30T02:09:06.216Z,15.30
2023-04-30T02:14:08.055Z,18.05
2023-04-30T02:19:11.232Z,13.35
2023-04-30T02:24:12.940Z,14.80
2023-04-30T02:29:14.552Z,19.60
2023-04-30T02:34:16.143Z,20.33
2023-04-30T02:39:18.148Z,15.80
2023-04-30T02:44:20.019Z,16.65
2023-04-30T02:49:21.724Z,19.30
2023-04-30T02:54:23.409Z,16.25
2023-04-30T02:59:25.148Z,17.75
2023-04-30T03:04:26.772Z,17.25
2023-04-30T03:09:32.391Z,17.02
2023-04-30T03:14:34.056Z,17.55
2023-04-30T03:19:35.824Z,18.55
2023-04-30T03:24:38.334Z,18.17
2023-04-30T03:29:39.986Z,17.52
2023-04-30T03:34:41.599Z,18.25
2023-04-30T03:39:43.251Z,18.48
2023-04-30T03:44:44.937Z,17.92
2023-04-30T03:49:55.336Z,16.70
2023-04-30T03:54:57.923Z,12.15
2023-04-30T03:59:59.866Z,12.68
2023-04-30T04:05:02.199Z,13.07
2023-04-30T04:10:04.052Z,11.00
2023-04-30T04:15:07.536Z,14.57
2023-04-30T04:20:13.811Z,11.88
2023-04-30T04:25:16.038Z,11.35
2023-04-30T04:30:19.670Z,13.95
2023-04-30T04:35:22.829Z,13.68
2023-04-30T04:40:25.026Z,13.27
2023-04-30T04:45:26.862Z,11.13
2023-04-30T04:50:28.668Z,9.35
2023-04-30T04:55:30.307Z,13.43
2023-04-30T05:00:33.837Z,11.50
2023-04-30T05:05:35.899Z,10.45
2023-04-30T05:10:37.834Z,10.40
2023-04-30T05:15:39.534Z,10.68
2023-04-30T05:20:43.883Z,11.88
2023-04-30T05:25:45.657Z,11.60
2023-04-30T05:30:50.066Z,11.15
2023-04-30T05:35:51.731Z,12.18
2023-04-30T05:40:53.426Z,13.55
2023-04-30T05:45:55.195Z,11.90
2023-04-30T05:50:56.920Z,11.02
2023-04-30T05:55:58.777Z,11.18
2023-04-30T06:01:00.475Z,12.25
2023-04-30T06:06:02.168Z,13.75
2023-04-30T06:11:05.188Z,12.48
2023-04-30T06:16:08.393Z,10.93
2023-04-30T06:21:10.452Z,10.93
2023-04-30T06:26:15.047Z,13.15
2023-04-30T06:31:16.828Z,9.60
2023-04-30T06:36:21.487Z,12.80
2023-04-30T06:41:23.157Z,10.63
2023-04-30T06:46:24.849Z,10.82
2023-04-30T06:51:26.697Z,10.25
2023-04-30T06:56:28.294Z,10.30
2023-04-30T07:01:32.223Z,9.27
2023-04-30T07:06:34.089Z,9.40
2023-04-30T07:11:36.104Z,7.97
2023-04-30T07:16:37.862Z,8.27
2023-04-30T07:21:39.478Z,8.10
2023-04-30T07:26:42.439Z,7.85
2023-04-30T07:31:44.408Z,7.15
2023-04-30T07:36:49.661Z,7.07
2023-04-30T07:41:52.369Z,9.35
2023-04-30T07:46:54.032Z,7.75
2023-04-30T07:51:56.253Z,6.68
2023-04-30T07:56:57.903Z,8.18
2023-04-30T08:02:00.085Z,6.25
2023-04-30T08:07:02.423Z,6.18
2023-04-30T08:12:05.177Z,8.48
2023-04-30T08:17:06.949Z,6.43
2023-04-30T08:22:08.733Z,4.88
2023-04-30T08:27:10.306Z,5.32
2023-04-30T08:32:12.205Z,6.50
2023-04-30T08:37:17.197Z,5.90
2023-04-30T08:42:26.165Z,4.80
2023-04-30T08:47:28.341Z,4.80
2023-04-30T08:52:34.008Z,5.07
2023-04-30T08:57:37.079Z,7.97
2023-04-30T09:02:42.173Z,5.85
2023-04-30T09:08:01.195Z,5.15
2023-04-30T09:13:09.475Z,7.22
2023-04-30T09:18:19.765Z,5.00
2023-04-30T09:23:21.710Z,5.30
2023-04-30T09:28:26.591Z,6.18
2023-04-30T09:33:28.448Z,5.28
2023-04-30T09:38:32.153Z,5.88
2023-04-30T09:43:33.952Z,5.50
2023-04-30T09:48:35.683Z,5.70
2023-04-30T09:53:42.966Z,5.80
2023-04-30T09:58:50.220Z,4.90
2023-04-30T10:03:54.311Z,6.00
2023-04-30T10:08:57.753Z,5.35
2023-04-30T10:14:11.948Z,5.43
2023-04-30T10:19:29.733Z,5.20
2023-04-30T10:24:31.605Z,7.07
2023-04-30T10:29:33.803Z,5.35
2023-04-30T10:34:47.061Z,5.57
2023-04-30T10:39:52.447Z,5.80
2023-04-30T10:44:54.314Z,5.22
2023-04-30T10:50:08.806Z,5.90
2023-04-30T10:55:10.758Z,7.05
2023-04-30T11:00:14.393Z,5.93
2023-04-30T11:05:20.408Z,6.07
2023-04-30T11:10:23.916Z,6.25
2023-04-30T11:15:27.206Z,5.00
2023-04-30T11:20:29.066Z,7.13
2023-04-30T11:25:39.828Z,6.65
2023-04-30T11:30:50.721Z,7.72
2023-04-30T11:35:53.539Z,4.35
2023-04-30T11:40:56.347Z,4.82
2023-04-30T11:46:09.339Z,5.70
2023-04-30T11:51:20.356Z,7.70
2023-04-30T11:56:25.731Z,4.35
2023-04-30T12:01:28.622Z,5.15
2023-04-30T12:06:31.623Z,4.20
2023-04-30T12:11:34.771Z,4.45
2023-04-30T12:16:52.396Z,4.78
2023-04-30T12:21:55.296Z,4.55
2023-04-30T12:27:00.250Z,7.47
2023-04-30T12:32:04.031Z,8.13
2023-04-30T12:37:05.798Z,6.00
2023-04-30T12:42:10.642Z,6.07
2023-04-30T12:47:13.945Z,5.30
2023-04-30T12:52:15.941Z,6.40
2023-04-30T12:57:20.116Z,9.02
2023-04-30T13:02:27.215Z,6.70
2023-04-30T13:07:38.634Z,6.93
2023-04-30T13:12:40.310Z,5.78
2023-04-30T13:17:42.074Z,7.05
2023-04-30T13:22:44.697Z,6.93
2023-04-30T13:27:46.463Z,6.00
2023-04-30T13:32:48.565Z,5.40
2023-04-30T13:37:52.694Z,4.32
2023-04-30T13:42:54.430Z,5.00
2023-04-30T13:47:56.483Z,6.07
2023-04-30T13:52:59.473Z,5.72
2023-04-30T13:58:01.271Z,5.60
2023-04-30T14:03:04.028Z,4.20
2023-04-30T14:08:07.394Z,5.82
2023-04-30T14:13:09.368Z,5.97
2023-04-30T14:18:11.274Z,6.97
2023-04-30T14:23:13.491Z,4.00
2023-04-30T14:28:15.269Z,5.05
2023-04-30T14:33:17.330Z,3.33
2023-04-30T14:38:26.815Z,3.00
2023-04-30T14:43:28.650Z,3.97
2023-04-30T14:48:30.544Z,1.60
2023-04-30T14:53:33.203Z,3.47
2023-04-30T14:58:35.037Z,2.03
2023-04-30T15:03:36.818Z,3.15
2023-04-30T15:08:38.818Z,2.95
2023-04-30T15:13:40.657Z,5.97
2023-04-30T15:18:43.161Z,2.47
2023-04-30T15:23:45.895Z,2.88
2023-04-30T15:28:49.191Z,2.08
2023-04-30T15:33:51.427Z,4.10
2023-04-30T15:38:53.200Z,5.25
2023-04-30T15:43:54.930Z,4.85
2023-04-30T15:48:57.126Z,4.60
2023-04-30T15:53:58.845Z,4.18
2023-04-30T15:59:00.726Z,4.05
2023-04-30T16:04:04.443Z,4.30
2023-04-30T16:09:07.443Z,3.88
2023-04-30T16:14:09.405Z,2.75
2023-04-30T16:19:12.467Z,6.45
2023-04-30T16:24:16.382Z,4.60
2023-04-30T16:29:19.746Z,4.65
2023-04-30T16:34:21.649Z,4.70
2023-04-30T16:39:23.440Z,4.22
2023-04-30T16:44:25.182Z,8.82
2023-04-30T16:49:27.066Z,5.93
2023-04-30T16:54:29.544Z,3.83
2023-04-30T16:59:31.277Z,6.13
2023-04-30T17:04:33.062Z,4.68
2023-04-30T17:09:36.166Z,4.88
2023-04-30T17:14:37.930Z,7.53
2023-04-30T17:19:39.685Z,3.95
2023-04-30T17:24:41.352Z,4.72
2023-04-30T17:29:43.241Z,4.20
2023-04-30T17:34:48.194Z,3.50
2023-04-30T17:39:50.064Z,4.75
2023-04-30T17:44:51.767Z,4.65
2023-04-30T17:49:53.864Z,5.20
2023-04-30T17:54:57.012Z,5.57
2023-04-30T17:59:59.095Z,3.75
2023-04-30T18:05:01.100Z,22.95
2023-04-30T18:10:03.305Z,6.30
2023-04-30T18:15:08.520Z,5.20
2023-04-30T18:20:12.370Z,4.57
2023-04-30T18:25:19.360Z,7.20
2023-04-30T18:30:21.345Z,6.82
2023-04-30T18:35:23.476Z,5.25
2023-04-30T18:40:25.390Z,4.65
2023-04-30T18:45:27.396Z,4.85
2023-04-30T18:50:29.071Z,3.30
2023-04-30T18:55:30.816Z,6.95
2023-04-30T19:00:32.781Z,5.15
2023-04-30T19:05:35.813Z,7.35
2023-04-30T19:10:52.573Z,5.45
2023-04-30T19:16:04.249Z,6.90
2023-04-30T19:21:06.021Z,5.30
2023-04-30T19:26:07.718Z,5.38
2023-04-30T19:31:09.524Z,5.07
2023-04-30T19:36:11.673Z,6.47
2023-04-30T19:41:13.327Z,4.10
2023-04-30T19:46:19.151Z,5.80
2023-04-30T19:51:21.036Z,4.63
2023-04-30T19:56:23.381Z,5.97
2023-04-30T20:01:28.119Z,4.40
2023-04-30T20:06:30.473Z,7.53
2023-04-30T20:11:33.534Z,8.15
2023-04-30T20:16:35.255Z,6.28
2023-04-30T20:21:37.010Z,7.10
2023-04-30T20:26:38.686Z,6.72
2023-04-30T20:31:44.239Z,7.13
2023-04-30T20:37:05.555Z,5.03
2023-04-30T20:42:14.206Z,4.05
2023-04-30T20:47:33.934Z,3.83
2023-04-30T20:52:45.084Z,5.43
2023-04-30T20:57:53.412Z,4.88
2023-04-30T21:03:02.326Z,4.10
2023-04-30T21:08:06.204Z,4.15
2023-04-30T21:13:23.525Z,4.75
2023-04-30T21:18:36.133Z,6.13
2023-04-30T21:23:48.187Z,4.40
2023-04-30T21:28:54.785Z,5.50
2023-04-30T21:34:11.861Z,8.07
2023-04-30T21:39:21.102Z,8.55
2023-04-30T21:44:23.173Z,7.22
2023-04-30T21:49:31.679Z,10.60
2023-04-30T21:54:59.405Z,7.38
2023-04-30T22:00:05.004Z,15.23
2023-04-30T22:05:21.275Z,5.88
2023-04-30T22:10:30.900Z,8.45
2023-04-30T22:15:47.233Z,9.63
2023-04-30T22:20:53.297Z,8.00
2023-04-30T22:26:02.298Z,5.60
2023-04-30T22:31:11.723Z,6.88
2023-04-30T22:36:14.990Z,10.40
2023-04-30T22:41:22.367Z,5.18
2023-04-30T22:46:24.135Z,4.80
2023-04-30T22:51:27.043Z,5.75
2023-04-30T22:56:28.700Z,7.25
2023-04-30T23:01:30.437Z,7.13
2023-04-30T23:06:32.532Z,8.65
2023-04-30T23:11:34.232Z,5.20
2023-04-30T23:16:40.034Z,5.97
2023-04-30T23:21:41.913Z,7.43
2023-04-30T23:26:47.376Z,7.25
2023-04-30T23:31:51.021Z,10.18
2023-04-30T23:36:53.681Z,7.88
2023-04-30T23:41:55.324Z,8.80
2023-04-30T23:46:57.692Z,9.15
2023-04-30T23:51:59.342Z,5.90
2023-04-30T23:57:01.057Z,8.25
